Time;durP1;ratioP1;P1;durP2;ratioP2;P2;SDS_P1;SDS_P2;PMS_P1;PMS_P2;Temp;Humidity;BMP_temperature;BMP_pressure;BME280_temperature;BME280_humidity;BME280_pressure;Samples;Min_cycle;Max_cycle;Signal;HPM_P1;HPM_P2
2022/11/21 00:01:28;;;;;;;1.10;1.00;;;3.70;99.90;;;;;;5155987;27;20216;-75
2022/11/21 00:03:58;;;;;;;1.00;1.00;;;3.60;99.90;;;;;;5134166;27;20309;-75
2022/11/21 00:06:27;;;;;;;1.00;1.00;;;3.60;99.90;;;;;;5120979;28;20207;-75
2022/11/21 00:08:56;;;;;;;1.20;1.10;;;3.60;99.90;;;;;;5124014;28;20210;-75
2022/11/21 00:11:24;;;;;;;1.40;0.90;;;3.60;99.90;;;;;;5132441;28;20198;-78
2022/11/21 00:13:54;;;;;;;0.93;0.93;;;3.70;99.90;;;;;;5128339;28;20286;-77
2022/11/21 00:16:22;;;;;;;1.23;1.10;;;3.70;99.90;;;;;;5134387;28;20282;-77
2022/11/21 00:18:50;;;;;;;1.43;0.90;;;3.70;99.90;;;;;;5136112;28;20278;-78
2022/11/21 00:21:20;;;;;;;1.63;1.17;;;3.70;99.90;;;;;;5133394;28;20205;-78
2022/11/21 00:23:48;;;;;;;1.40;0.97;;;3.60;99.90;;;;;;5135773;27;20218;-78
2022/11/21 00:26:17;;;;;;;1.00;1.00;;;3.70;99.90;;;;;;5135408;28;20212;-78
2022/11/21 00:28:45;;;;;;;0.80;0.80;;;3.60;99.90;;;;;;5136175;28;20276;-77
2022/11/21 00:31:19;;;;;;;0.97;0.97;;;3.60;99.90;;;;;;5135644;28;20213;-78
2022/11/21 00:33:47;;;;;;;1.60;1.00;;;3.60;99.90;;;;;;5135749;28;20221;-78
2022/11/21 00:36:15;;;;;;;0.90;0.90;;;3.60;99.90;;;;;;5134800;28;20209;-79
2022/11/21 00:38:45;;;;;;;1.07;0.90;;;3.60;99.90;;;;;;5147638;27;20206;-76
2022/11/21 00:41:13;;;;;;;0.97;0.90;;;3.60;99.90;;;;;;5151795;27;20327;-76
2022/11/21 00:43:40;;;;;;;1.00;1.00;;;3.60;99.90;;;;;;5141717;27;20237;-78
2022/11/21 00:46:11;;;;;;;0.90;0.90;;;3.60;99.90;;;;;;5141691;27;20288;-80
2022/11/21 00:48:39;;;;;;;0.83;0.83;;;3.60;99.90;;;;;;5144961;27;20193;-77
2022/11/21 00:51:07;;;;;;;1.77;1.00;;;3.60;99.90;;;;;;5144529;27;20206;-76
2022/11/21 00:53:38;;;;;;;2.20;1.00;;;3.60;99.90;;;;;;5149532;27;20716;-76
2022/11/21 00:56:07;;;;;;;0.90;0.80;;;3.60;99.90;;;;;;5148775;27;20206;-79
2022/11/21 00:58:47;;;;;;;1.27;0.90;;;3.70;99.90;;;;;;5134530;28;20229;-79
2022/11/21 01:01:16;;;;;;;0.93;0.93;;;3.70;99.90;;;;;;5133999;28;20234;-78
2022/11/21 01:03:45;;;;;;;1.10;1.07;;;3.70;99.90;;;;;;5134520;28;20240;-78
2022/11/21 01:06:16;;;;;;;1.87;1.07;;;3.70;99.90;;;;;;5136176;27;20212;-77
2022/11/21 01:08:46;;;;;;;1.13;1.10;;;3.70;99.90;;;;;;5136091;28;20202;-76
2022/11/21 01:11:17;;;;;;;0.90;0.90;;;3.70;99.90;;;;;;5137385;28;20230;-77
2022/11/21 01:13:46;;;;;;;0.80;0.80;;;3.70;99.90;;;;;;5137115;28;20461;-80
2022/11/21 01:16:19;;;;;;;0.97;0.97;;;3.70;99.90;;;;;;5151868;27;20203;-80
2022/11/21 01:18:48;;;;;;;0.90;0.70;;;3.80;99.90;;;;;;5157158;27;20219;-76
2022/11/21 01:21:19;;;;;;;1.20;1.10;;;3.80;99.90;;;;;;5156500;27;20280;-77
2022/11/21 01:23:48;;;;;;;0.90;0.83;;;3.80;99.90;;;;;;5139234;27;20273;-78
2022/11/21 01:26:20;;;;;;;1.97;1.10;;;3.80;99.90;;;;;;5136089;28;20209;-78
2022/11/21 01:28:49;;;;;;;1.03;0.90;;;3.80;99.90;;;;;;5132850;28;20265;-75
2022/11/21 01:31:18;;;;;;;0.90;0.90;;;3.80;99.90;;;;;;5119023;28;20210;-76
2022/11/21 01:33:47;;;;;;;1.20;1.10;;;3.80;99.90;;;;;;5118693;28;20224;-78
2022/11/21 01:36:20;;;;;;;1.07;1.00;;;3.80;99.90;;;;;;5129419;27;20292;-76
2022/11/21 01:38:50;;;;;;;2.07;1.00;;;3.80;99.90;;;;;;5154315;27;20280;-79
2022/11/21 01:41:21;;;;;;;0.90;0.90;;;3.90;99.90;;;;;;5151590;27;20297;-75
2022/11/21 01:43:50;;;;;;;1.10;1.00;;;3.90;99.90;;;;;;5153894;27;20189;-75
2022/11/21 01:46:19;;;;;;;1.30;0.90;;;3.90;99.90;;;;;;5150538;27;20209;-78
2022/11/21 01:48:53;;;;;;;0.80;0.80;;;3.90;99.90;;;;;;5142409;27;20181;-75
2022/11/21 01:51:25;;;;;;;1.00;1.00;;;3.90;99.90;;;;;;5142364;27;20196;-75
2022/11/21 01:54:02;;;;;;;1.20;1.00;;;3.90;99.90;;;;;;5133965;28;20213;-77
2022/11/21 01:56:40;;;;;;;2.10;1.10;;;3.90;99.90;;;;;;5134696;27;20273;-77
2022/11/21 01:59:14;;;;;;;1.30;1.10;;;3.90;99.90;;;;;;5134355;28;20336;-76
2022/11/21 02:01:43;;;;;;;2.50;1.20;;;4.00;99.90;;;;;;5134740;28;20194;-78
2022/11/21 02:04:15;;;;;;;1.30;1.17;;;3.90;99.90;;;;;;5133107;28;20213;-78
2022/11/21 02:06:44;;;;;;;2.80;1.23;;;3.90;99.90;;;;;;5134443;28;20235;-79
2022/11/21 02:09:12;;;;;;;1.37;1.10;;;3.90;99.90;;;;;;5133627;27;20190;-79
2022/11/21 02:11:49;;;;;;;1.07;1.00;;;3.90;99.90;;;;;;5133145;28;20210;-77
2022/11/21 02:14:20;;;;;;;1.23;1.10;;;3.80;99.90;;;;;;5133098;28;20198;-78
2022/11/21 02:16:49;;;;;;;1.43;1.00;;;3.80;99.90;;;;;;5133821;28;20208;-78
2022/11/21 02:19:25;;;;;;;1.13;1.00;;;3.70;99.90;;;;;;5134053;28;20216;-75
2022/11/21 02:22:01;;;;;;;1.50;1.40;;;3.70;99.90;;;;;;5133387;28;20266;-78
2022/11/21 02:24:37;;;;;;;1.80;1.10;;;3.60;99.90;;;;;;5145261;28;20292;-76
2022/11/21 02:27:11;;;;;;;1.53;1.30;;;3.60;99.90;;;;;;5153283;28;20209;-77
2022/11/21 02:29:42;;;;;;;1.67;1.20;;;3.50;99.90;;;;;;5154778;28;20271;-77
2022/11/21 02:32:21;;;;;;;2.03;1.30;;;3.60;99.90;;;;;;5154916;28;20220;-74
2022/11/21 02:34:49;;;;;;;1.30;1.20;;;3.60;99.90;;;;;;5155459;27;20454;-76
2022/11/21 02:37:18;;;;;;;2.23;1.10;;;3.70;99.90;;;;;;5155408;28;20224;-77
2022/11/21 02:39:47;;;;;;;1.90;1.20;;;3.70;99.90;;;;;;5153500;28;20205;-78
2022/11/21 02:42:23;;;;;;;2.63;1.10;;;3.70;99.90;;;;;;5139124;27;20206;-75
2022/11/21 02:44:56;;;;;;;1.83;1.33;;;3.80;99.90;;;;;;5131312;28;20230;-73
2022/11/21 02:47:27;;;;;;;1.17;1.03;;;3.80;99.90;;;;;;5124698;28;20215;-76
2022/11/21 02:50:01;;;;;;;2.93;1.10;;;3.80;99.90;;;;;;5126624;28;20668;-74
2022/11/21 02:52:29;;;;;;;2.40;1.13;;;3.90;99.90;;;;;;5127799;28;20213;-76
2022/11/21 02:55:02;;;;;;;1.40;1.10;;;3.90;99.90;;;;;;5127025;28;20261;-76
2022/11/21 02:57:31;;;;;;;1.20;1.10;;;4.00;99.90;;;;;;5119345;28;20200;-76
2022/11/21 03:00:00;;;;;;;1.80;1.23;;;4.00;99.90;;;;;;5119243;28;20249;-76
2022/11/21 03:02:29;;;;;;;2.03;1.10;;;4.00;99.90;;;;;;5118681;28;20258;-76
2022/11/21 03:04:57;;;;;;;2.53;1.20;;;4.00;99.90;;;;;;5118484;28;20230;-75
2022/11/21 03:07:28;;;;;;;1.30;1.20;;;4.00;99.90;;;;;;5133530;28;20209;-77
2022/11/21 03:10:00;;;;;;;2.20;1.20;;;4.00;99.90;;;;;;5129014;28;20197;-78
2022/11/21 03:12:32;;;;;;;2.27;1.20;;;4.00;99.90;;;;;;5125251;28;20233;-77
2022/11/21 03:15:00;;;;;;;1.57;1.10;;;4.00;99.90;;;;;;5118318;28;20220;-78
2022/11/21 03:17:32;;;;;;;1.53;1.20;;;3.90;99.90;;;;;;5116889;28;20229;-81
2022/11/21 03:20:04;;;;;;;1.33;1.10;;;3.90;99.90;;;;;;5116493;28;20225;-76
2022/11/21 03:22:33;;;;;;;1.37;1.00;;;3.90;99.90;;;;;;5118758;28;20313;-78
2022/11/21 03:25:01;;;;;;;1.97;1.13;;;3.90;99.90;;;;;;5134332;28;20230;-78
2022/11/21 03:27:32;;;;;;;1.67;1.20;;;3.90;99.90;;;;;;5137274;28;20202;-78
2022/11/21 03:30:00;;;;;;;2.50;1.30;;;3.80;99.90;;;;;;5127647;28;20213;-79
2022/11/21 03:32:31;;;;;;;1.93;1.20;;;3.80;99.90;;;;;;5121459;28;20206;-73
2022/11/21 03:34:59;;;;;;;3.53;1.30;;;3.80;99.90;;;;;;5140066;27;20193;-77
2022/11/21 03:37:34;;;;;;;3.13;1.20;;;3.80;99.90;;;;;;5143971;27;20196;-75
2022/11/21 03:40:02;;;;;;;2.30;1.00;;;3.70;99.90;;;;;;5141221;27;20205;-76
2022/11/21 03:42:36;;;;;;;3.97;1.20;;;3.70;99.90;;;;;;5140915;27;20209;-76
2022/11/21 03:45:06;;;;;;;4.47;1.20;;;3.70;99.90;;;;;;5124079;27;20220;-74
2022/11/21 03:47:36;;;;;;;3.27;1.20;;;3.70;99.90;;;;;;5118169;27;20230;-77
2022/11/21 03:50:09;;;;;;;1.60;1.13;;;3.60;99.90;;;;;;5115057;28;20203;-76
2022/11/21 03:52:37;;;;;;;2.03;1.33;;;3.60;99.90;;;;;;5115505;28;20682;-77
2022/11/21 03:55:09;;;;;;;1.57;1.00;;;3.50;99.90;;;;;;5116921;28;20285;-77
2022/11/21 03:57:46;;;;;;;2.37;1.20;;;3.50;99.90;;;;;;5116775;28;20655;-77
2022/11/21 04:00:16;;;;;;;2.60;1.03;;;3.40;99.90;;;;;;5116968;28;20205;-76
2022/11/21 04:02:44;;;;;;;3.27;1.30;;;3.40;99.90;;;;;;5117340;28;20206;-75
2022/11/21 04:05:13;;;;;;;3.17;1.00;;;3.40;99.90;;;;;;5118843;27;20230;-77
2022/11/21 04:07:42;;;;;;;2.83;1.00;;;3.40;99.90;;;;;;5121196;27;20202;-77
2022/11/21 04:10:13;;;;;;;2.50;1.13;;;3.40;99.90;;;;;;5116329;28;20210;-78
2022/11/21 04:12:43;;;;;;;2.67;1.13;;;3.30;99.90;;;;;;5115314;27;20257;-76
2022/11/21 04:15:11;;;;;;;2.10;1.20;;;3.30;99.90;;;;;;5115664;28;20202;-75
2022/11/21 04:17:41;;;;;;;3.30;1.10;;;3.40;99.90;;;;;;5115942;28;20202;-80
2022/11/21 04:20:10;;;;;;;3.00;1.10;;;3.40;99.90;;;;;;5115533;28;20596;-78
2022/11/21 04:22:38;;;;;;;4.27;1.23;;;3.30;99.90;;;;;;5115995;28;20214;-76
2022/11/21 04:25:08;;;;;;;1.10;1.00;;;3.40;99.90;;;;;;5115935;28;20257;-77
2022/11/21 04:27:36;;;;;;;3.83;1.10;;;3.40;99.90;;;;;;5115521;28;20233;-78
2022/11/21 04:30:07;;;;;;;2.90;1.03;;;3.50;99.90;;;;;;5115890;28;20249;-77
2022/11/21 04:32:35;;;;;;;1.33;0.90;;;3.50;99.90;;;;;;5124743;27;20688;-76
2022/11/21 04:35:03;;;;;;;1.97;0.90;;;3.50;99.90;;;;;;5135293;27;20667;-76
2022/11/21 04:37:32;;;;;;;1.97;0.90;;;3.50;99.90;;;;;;5125109;27;20202;-75
2022/11/21 04:40:02;;;;;;;1.57;0.90;;;3.70;99.90;;;;;;5113835;28;20296;-72
2022/11/21 04:42:33;;;;;;;2.83;1.20;;;3.60;99.90;;;;;;5115279;27;20293;-76
2022/11/21 04:45:04;;;;;;;2.80;1.30;;;3.70;99.90;;;;;;5119567;27;20225;-76
2022/11/21 04:47:36;;;;;;;2.93;1.17;;;3.70;99.90;;;;;;5115871;28;20549;-75
2022/11/21 04:50:05;;;;;;;1.53;1.07;;;3.70;99.90;;;;;;5115132;28;20216;-74
2022/11/21 04:52:36;;;;;;;4.07;1.00;;;3.80;99.90;;;;;;5124605;28;20225;-77
2022/11/21 04:55:06;;;;;;;2.00;1.37;;;3.80;99.90;;;;;;5135293;28;20177;-79
2022/11/21 04:57:35;;;;;;;3.43;1.50;;;3.90;99.90;;;;;;5132067;28;20213;-81
2022/11/21 05:00:07;;;;;;;5.43;1.50;;;3.90;99.90;;;;;;5114841;28;20202;-79
2022/11/21 05:02:36;;;;;;;3.03;1.30;;;4.00;99.90;;;;;;5113050;28;20281;-76
2022/11/21 05:05:05;;;;;;;3.87;1.40;;;4.00;99.90;;;;;;5113497;28;20698;-78
2022/11/21 05:07:34;;;;;;;2.77;1.20;;;4.00;99.90;;;;;;5114107;28;20206;-79
2022/11/21 05:10:04;;;;;;;3.17;1.40;;;4.10;99.90;;;;;;5114502;28;20202;-78
2022/11/21 05:15:19;;;;;;;2.03;1.20;;;4.10;99.90;;;;;;5113178;28;20189;-76
2022/11/21 05:17:58;;;;;;;2.03;0.93;;;4.10;99.90;;;;;;5120731;27;20208;-75
2022/11/21 05:20:29;;;;;;;3.13;1.43;;;4.10;99.90;;;;;;5116920;28;20220;-76
2022/11/21 05:23:03;;;;;;;1.70;1.00;;;4.10;99.90;;;;;;5115840;28;20214;-76
2022/11/21 05:25:31;;;;;;;2.63;1.20;;;4.00;99.90;;;;;;5113715;28;20222;-81
2022/11/21 05:27:59;;;;;;;2.40;1.00;;;4.00;99.90;;;;;;5113184;28;20579;-79
2022/11/21 05:30:30;;;;;;;2.57;1.10;;;3.80;99.90;;;;;;5117383;27;20222;-79
2022/11/21 05:33:00;;;;;;;1.27;0.93;;;3.80;99.90;;;;;;5133148;27;20600;-77
2022/11/21 05:35:31;;;;;;;2.20;1.10;;;3.70;99.90;;;;;;5133081;27;20487;-79
2022/11/21 05:37:59;;;;;;;3.33;1.33;;;3.60;99.90;;;;;;5133482;27;20201;-78
2022/11/21 05:40:30;;;;;;;3.57;1.23;;;3.60;99.90;;;;;;5132238;27;20685;-78
2022/11/21 05:45:49;;;;;;;4.07;1.20;;;3.50;99.90;;;;;;5113480;28;20237;-76
2022/11/21 05:48:18;;;;;;;1.87;1.23;;;3.40;99.90;;;;;;5112278;28;20569;-77
2022/11/21 05:50:49;;;;;;;3.33;1.37;;;3.40;99.90;;;;;;5111908;27;20403;-79
2022/11/21 05:53:17;;;;;;;2.53;1.33;;;3.40;99.90;;;;;;5112089;28;20245;-79
2022/11/21 05:55:45;;;;;;;3.73;1.40;;;3.40;99.90;;;;;;5112689;28;20213;-79
2022/11/21 05:58:16;;;;;;;1.67;1.10;;;3.40;99.90;;;;;;5113095;28;20225;-79
2022/11/21 06:00:44;;;;;;;3.50;1.40;;;3.40;99.90;;;;;;5112281;28;20234;-80
2022/11/21 06:03:29;;;;;;;4.40;1.30;;;3.40;99.90;;;;;;5112699;28;20732;-77
2022/11/21 06:06:04;;;;;;;2.23;1.40;;;3.40;99.90;;;;;;5112378;28;20492;-78
2022/11/21 06:08:35;;;;;;;3.33;1.23;;;3.40;99.90;;;;;;5112549;28;20686;-80
2022/11/21 06:11:06;;;;;;;2.67;1.17;;;3.40;99.90;;;;;;5112276;28;20202;-77
2022/11/21 06:13:35;;;;;;;5.10;2.00;;;3.40;99.90;;;;;;5111848;27;20230;-75
2022/11/21 06:16:07;;;;;;;3.83;1.40;;;3.40;99.90;;;;;;5112211;28;20202;-77
2022/11/21 06:18:38;;;;;;;2.60;1.30;;;3.40;99.90;;;;;;5115072;28;20206;-77
2022/11/21 06:21:09;;;;;;;4.30;1.67;;;3.40;99.90;;;;;;5111898;28;20221;-77
2022/11/21 06:23:38;;;;;;;4.80;1.50;;;3.40;99.90;;;;;;5112078;28;20200;-78
2022/11/21 06:26:13;;;;;;;4.43;1.70;;;3.40;99.90;;;;;;5112318;28;20217;-79
2022/11/21 06:28:43;;;;;;;7.23;3.73;;;3.50;99.90;;;;;;5113942;28;20216;-77
2022/11/21 06:31:12;;;;;;;2.40;1.57;;;3.50;99.90;;;;;;5133302;28;20610;-77
2022/11/21 06:33:41;;;;;;;3.83;1.80;;;3.40;99.90;;;;;;5133901;28;20220;-76
2022/11/21 06:36:14;;;;;;;3.97;2.10;;;3.50;99.90;;;;;;5117487;27;20206;-76
2022/11/21 06:38:47;;;;;;;4.23;1.80;;;3.50;99.90;;;;;;5112138;27;20313;-77
2022/11/21 06:41:17;;;;;;;2.97;1.20;;;3.50;99.90;;;;;;5112527;28;20220;-78
2022/11/21 06:43:47;;;;;;;2.93;1.40;;;3.60;99.90;;;;;;5112788;28;20552;-79
2022/11/21 06:46:15;;;;;;;2.03;1.10;;;3.50;99.90;;;;;;5112934;28;20222;-77
2022/11/21 06:48:44;;;;;;;2.30;1.60;;;3.50;99.90;;;;;;5113102;28;20627;-79
2022/11/21 06:51:18;;;;;;;2.27;1.23;;;3.60;99.90;;;;;;5112542;28;20221;-79
2022/11/21 06:53:54;;;;;;;2.63;1.53;;;3.60;99.90;;;;;;5111808;28;20209;-79
2022/11/21 06:56:24;;;;;;;2.30;1.30;;;3.60;99.90;;;;;;5111250;28;20233;-79
2022/11/21 06:58:53;;;;;;;2.23;1.23;;;3.70;99.90;;;;;;5128136;27;20197;-78
2022/11/21 07:01:23;;;;;;;1.93;1.40;;;3.60;99.90;;;;;;5150458;27;20209;-79
2022/11/21 07:03:52;;;;;;;3.23;1.20;;;3.70;99.90;;;;;;5135442;27;20205;-77
2022/11/21 07:06:22;;;;;;;2.70;1.53;;;3.70;99.90;;;;;;5129822;27;20801;-77
2022/11/21 07:08:55;;;;;;;2.10;1.40;;;3.70;99.90;;;;;;5122958;27;20210;-76
2022/11/21 07:11:44;;;;;;;2.47;1.47;;;3.60;99.90;;;;;;5119761;27;20666;-75
2022/11/21 07:14:13;;;;;;;2.07;1.30;;;3.60;99.90;;;;;;5137460;27;20219;-79
2022/11/21 07:16:43;;;;;;;2.97;1.67;;;3.60;99.90;;;;;;5126849;27;20203;-79
2022/11/21 07:19:11;;;;;;;2.97;1.37;;;3.70;99.90;;;;;;5116117;27;20205;-77
2022/11/21 07:21:41;;;;;;;1.97;1.40;;;3.70;99.90;;;;;;5144503;27;20216;-78
2022/11/21 07:24:13;;;;;;;3.60;1.50;;;3.80;99.90;;;;;;5129662;27;20523;-79
2022/11/21 07:26:41;;;;;;;2.03;1.30;;;3.70;99.90;;;;;;5131893;27;20286;-79
2022/11/21 07:29:09;;;;;;;2.03;1.40;;;3.80;99.90;;;;;;5136392;27;20216;-76
2022/11/21 07:31:37;;;;;;;3.30;1.83;;;3.80;99.90;;;;;;5130007;27;20205;-76
2022/11/21 07:34:07;;;;;;;2.17;1.50;;;3.80;99.90;;;;;;5136521;27;20205;-78
2022/11/21 07:36:36;;;;;;;2.93;1.90;;;3.80;99.90;;;;;;5122487;27;20686;-77
2022/11/21 07:39:11;;;;;;;2.83;1.80;;;3.90;99.90;;;;;;5127884;27;20201;-79
2022/11/21 07:41:39;;;;;;;3.17;1.60;;;3.90;99.90;;;;;;5135112;27;20659;-78
2022/11/21 07:44:07;;;;;;;2.13;1.50;;;4.00;99.90;;;;;;5128292;27;20209;-77
2022/11/21 07:46:35;;;;;;;1.90;1.40;;;4.10;99.90;;;;;;5125612;27;20229;-76
2022/11/21 07:49:05;;;;;;;1.53;1.40;;;4.30;99.90;;;;;;5127358;27;20210;-77
2022/11/21 07:51:36;;;;;;;2.33;1.60;;;4.40;99.90;;;;;;5131853;27;20207;-80
2022/11/21 07:54:06;;;;;;;1.57;1.47;;;4.50;99.90;;;;;;5138737;27;20219;-78
2022/11/21 07:56:34;;;;;;;2.93;1.60;;;5.00;99.90;;;;;;5125903;27;20197;-77
2022/11/21 07:59:02;;;;;;;1.40;1.30;;;5.10;99.90;;;;;;5142598;27;20205;-79
2022/11/21 08:01:30;;;;;;;1.47;1.37;;;5.60;99.90;;;;;;5122641;27;20283;-75
2022/11/21 08:04:01;;;;;;;2.87;1.90;;;5.90;99.90;;;;;;5127481;27;20210;-77
2022/11/21 08:06:32;;;;;;;4.53;2.50;;;5.80;99.90;;;;;;5132975;27;20768;-78
2022/11/21 08:09:04;;;;;;;2.83;2.03;;;5.70;99.90;;;;;;5128391;27;20197;-72
2022/11/21 08:11:36;;;;;;;1.53;1.33;;;5.60;99.90;;;;;;5124540;27;20224;-76
2022/11/21 08:14:05;;;;;;;1.80;1.33;;;5.40;99.90;;;;;;5114406;27;20198;-77
2022/11/21 08:16:33;;;;;;;1.70;1.50;;;5.40;99.90;;;;;;5119072;27;20231;-77
2022/11/21 08:19:02;;;;;;;1.77;0.97;;;5.30;99.90;;;;;;5126693;27;20208;-77
2022/11/21 08:21:33;;;;;;;1.17;0.80;;;5.30;99.90;;;;;;5135642;27;20262;-75
2022/11/21 08:24:01;;;;;;;0.97;0.93;;;5.20;99.90;;;;;;5125270;27;20293;-78
2022/11/21 08:26:32;;;;;;;0.73;0.73;;;5.20;99.90;;;;;;5125951;27;20199;-77
2022/11/21 08:29:00;;;;;;;0.87;0.80;;;5.20;99.90;;;;;;5131446;27;20202;-75
2022/11/21 08:31:31;;;;;;;0.77;0.70;;;5.20;99.90;;;;;;5128148;27;20218;-79
2022/11/21 08:33:59;;;;;;;0.60;0.60;;;5.10;99.90;;;;;;5113262;27;20536;-76
2022/11/21 08:36:27;;;;;;;0.97;0.87;;;5.40;99.90;;;;;;5122338;27;20217;-73
2022/11/21 08:39:01;;;;;;;0.73;0.73;;;5.70;99.90;;;;;;5133646;27;20315;-74
2022/11/21 08:44:16;;;;;;;0.73;0.70;;;6.70;99.90;;;;;;5126154;27;20209;-77
2022/11/21 08:46:44;;;;;;;1.23;0.70;;;7.10;99.90;;;;;;5115624;27;20210;-76
2022/11/21 08:49:12;;;;;;;3.07;0.80;;;7.30;99.90;;;;;;5134067;27;20264;-76
2022/11/21 08:51:43;;;;;;;2.13;0.87;;;7.20;99.90;;;;;;5134257;27;20248;-75
2022/11/21 08:54:12;;;;;;;1.87;0.90;;;6.90;99.90;;;;;;5134285;27;20381;-79
2022/11/21 08:56:42;;;;;;;2.70;1.07;;;6.40;99.90;;;;;;5112847;27;20217;-75
2022/11/21 08:59:17;;;;;;;1.30;0.60;;;6.30;99.90;;;;;;5123748;27;20663;-74
2022/11/21 09:01:46;;;;;;;1.07;0.70;;;6.00;99.90;;;;;;5140470;27;20272;-74
2022/11/21 09:04:14;;;;;;;0.80;0.60;;;5.90;99.90;;;;;;5136038;27;20627;-77
2022/11/21 09:06:43;;;;;;;1.60;1.40;;;5.80;99.90;;;;;;5144224;27;20215;-79
2022/11/21 09:09:11;;;;;;;1.63;0.73;;;5.60;99.90;;;;;;5157026;27;20231;-78
2022/11/21 09:11:39;;;;;;;2.03;0.70;;;5.60;99.90;;;;;;5117394;27;20289;-79
2022/11/21 09:19:42;;;;;;;2.30;0.80;;;5.50;99.90;;;;;;5113675;28;20210;-79
2022/11/21 09:22:10;;;;;;;1.40;0.77;;;5.50;99.90;;;;;;5114271;28;20210;-80
2022/11/21 09:24:38;;;;;;;1.83;0.80;;;5.40;99.90;;;;;;5115698;27;20217;-79
2022/11/21 09:27:08;;;;;;;1.57;0.80;;;5.40;99.90;;;;;;5117024;27;20224;-75
2022/11/21 09:29:36;;;;;;;2.27;1.00;;;5.60;99.90;;;;;;5113633;27;20561;-76
2022/11/21 09:32:05;;;;;;;1.20;0.60;;;6.10;99.90;;;;;;5114292;27;20206;-79
2022/11/21 09:34:33;;;;;;;2.07;0.80;;;7.00;99.90;;;;;;5113422;27;20202;-77
2022/11/21 09:37:04;;;;;;;1.83;0.83;;;7.30;99.90;;;;;;5113748;28;20280;-79
2022/11/21 09:39:33;;;;;;;1.70;1.00;;;7.00;99.90;;;;;;5113110;28;20210;-78
2022/11/21 09:42:16;;;;;;;0.93;0.83;;;7.10;99.90;;;;;;5122666;28;20220;-73
2022/11/21 09:45:04;;;;;;;2.37;0.97;;;6.70;99.90;;;;;;5131437;27;20206;-76
2022/11/21 09:47:39;;;;;;;1.20;0.90;;;6.80;99.90;;;;;;5114286;28;20294;-76
2022/11/21 09:50:25;;;;;;;2.63;0.97;;;7.10;99.90;;;;;;5116505;28;20198;-76
2022/11/21 09:52:58;;;;;;;1.97;0.87;;;7.30;99.90;;;;;;5123039;27;20213;-75
2022/11/21 09:55:35;;;;;;;1.77;0.87;;;7.50;99.90;;;;;;5136086;27;20294;-77
2022/11/21 09:58:14;;;;;;;2.63;1.00;;;7.90;99.90;;;;;;5138015;27;20331;-75
2022/11/21 10:00:42;;;;;;;7.47;5.27;;;8.20;99.90;;;;;;5136668;27;20193;-75
2022/11/21 10:03:13;;;;;;;4.03;1.40;;;8.00;99.90;;;;;;5137103;27;20247;-79
2022/11/21 10:05:52;;;;;;;1.40;1.00;;;8.40;99.90;;;;;;5119313;27;20228;-78
2022/11/21 10:08:30;;;;;;;1.27;0.77;;;8.80;99.90;;;;;;5113140;28;20234;-77
2022/11/21 10:11:11;;;;;;;1.33;0.87;;;8.50;99.90;;;;;;5115172;27;20201;-77
2022/11/21 10:14:03;;;;;;;2.80;0.87;;;8.50;99.90;;;;;;5121957;27;20236;-79
2022/11/21 10:16:43;;;;;;;3.30;0.80;;;8.80;99.90;;;;;;5099504;28;20201;-79
2022/11/21 10:19:32;;;;;;;1.53;1.00;;;8.90;99.90;;;;;;5133920;28;20213;-78
2022/11/21 10:22:17;;;;;;;2.13;1.23;;;8.40;99.90;;;;;;5111952;28;20202;-78
2022/11/21 10:24:56;;;;;;;3.10;1.20;;;8.60;99.90;;;;;;5130231;28;20210;-79
2022/11/21 10:27:33;;;;;;;1.97;1.30;;;8.50;99.90;;;;;;5133926;28;20204;-76
2022/11/21 10:30:05;;;;;;;3.80;1.13;;;8.60;99.90;;;;;;5112675;28;20218;-75
2022/11/21 10:32:38;;;;;;;3.33;1.00;;;9.20;99.90;;;;;;5115190;28;20202;-75
2022/11/21 10:35:16;;;;;;;1.83;0.77;;;9.90;99.90;;;;;;5118890;27;20422;-77
2022/11/21 10:37:48;;;;;;;2.60;1.07;;;10.50;99.90;;;;;;5131939;27;20220;-76
2022/11/21 10:40:29;;;;;;;2.77;1.20;;;10.70;99.90;;;;;;5129119;27;20205;-78
2022/11/21 10:45:15;;;;;;;2.10;0.90;;;11.30;99.90;;;;;;5100322;27;20198;-78
2022/11/21 10:45:52;;;;;;;1.97;0.83;;;11.50;99.90;;;;;;5126090;27;20210;-78
2022/11/21 10:48:20;;;;;;;3.50;1.10;;;11.30;99.90;;;;;;5126981;27;20819;-77
2022/11/21 10:51:05;;;;;;;4.47;1.00;;;10.80;99.90;;;;;;5115529;27;20202;-77
2022/11/21 10:56:22;;;;;;;2.63;1.13;;;11.70;99.90;;;;;;5126030;27;20202;-78
2022/11/21 10:58:53;;;;;;;6.17;1.33;;;11.40;99.90;;;;;;5119094;27;20212;-79
2022/11/21 11:01:24;;;;;;;3.70;1.20;;;10.90;99.90;;;;;;5123994;27;20769;-77
2022/11/21 11:04:17;;;;;;;3.47;1.17;;;10.50;99.90;;;;;;5114388;27;20293;-76
2022/11/21 11:07:22;;;;;;;3.70;1.50;;;9.80;99.90;;;;;;5115124;27;20217;-75
2022/11/21 11:09:54;;;;;;;2.77;1.20;;;9.20;99.90;;;;;;5123644;27;20216;-77
2022/11/21 11:15:21;;;;;;;1.87;1.13;;;8.40;99.90;;;;;;5113472;27;20209;-76
2022/11/21 11:17:53;;;;;;;4.33;1.30;;;8.00;99.90;;;;;;5114361;27;20476;-79
2022/11/21 11:20:38;;;;;;;5.33;1.53;;;8.20;99.90;;;;;;5114611;27;20206;-79
2022/11/21 11:23:23;;;;;;;5.90;1.80;;;8.70;99.90;;;;;;5125398;27;20213;-78
2022/11/21 11:25:53;;;;;;;4.70;1.97;;;8.70;99.90;;;;;;5121919;27;20205;-78
2022/11/21 11:28:22;;;;;;;4.10;1.80;;;8.50;99.90;;;;;;5115033;27;20222;-78
2022/11/21 11:30:52;;;;;;;3.97;1.43;;;8.30;99.90;;;;;;5120322;27;20194;-77
2022/11/21 11:33:36;;;;;;;2.53;1.10;;;8.00;99.90;;;;;;5115010;27;20301;-78
2022/11/21 11:36:15;;;;;;;3.53;1.10;;;7.80;99.90;;;;;;5115035;27;20202;-77
2022/11/21 11:38:52;;;;;;;2.53;1.17;;;7.60;99.90;;;;;;5115739;27;20205;-75
2022/11/21 11:47:29;;;;;;;3.50;1.27;;;7.60;99.90;;;;;;5124931;27;20210;-77
2022/11/21 11:47:32;;;;;;;5.90;1.50;;;7.00;99.90;;;;;;5112968;28;20217;-76
2022/11/21 11:50:12;;;;;;;3.60;1.30;;;7.10;99.90;;;;;;5114248;27;20684;-73
2022/11/21 11:52:50;;;;;;;3.40;1.50;;;7.40;99.90;;;;;;5114317;28;20213;-76
2022/11/21 11:55:29;;;;;;;3.47;1.30;;;7.70;99.90;;;;;;5123207;27;20194;-76
2022/11/21 11:58:01;;;;;;;3.47;1.23;;;7.70;99.90;;;;;;5118668;28;20190;-77
2022/11/21 12:00:38;;;;;;;3.97;1.37;;;7.60;99.90;;;;;;5120268;27;20198;-78
2022/11/21 12:03:14;;;;;;;2.67;1.20;;;7.90;99.90;;;;;;5121893;27;20201;-77
2022/11/21 12:05:56;;;;;;;3.20;1.30;;;8.20;99.90;;;;;;5124839;27;20295;-78
2022/11/21 12:08:34;;;;;;;2.40;1.47;;;8.30;99.90;;;;;;5127780;27;20217;-78
2022/11/21 12:18:03;;;;;;;3.40;1.20;;;8.50;99.90;;;;;;5081401;27;20217;-76
2022/11/21 12:20:37;;;;;;;2.83;1.40;;;8.30;99.90;;;;;;5120471;27;20189;-78
2022/11/21 12:23:07;;;;;;;3.60;1.70;;;8.10;99.90;;;;;;5137194;27;20268;-76
2022/11/21 12:25:40;;;;;;;5.43;1.70;;;7.90;99.90;;;;;;5136886;27;20553;-73
2022/11/21 12:28:21;;;;;;;3.97;1.50;;;7.70;99.90;;;;;;5135721;27;20208;-76
2022/11/21 12:31:03;;;;;;;3.80;1.73;;;7.40;99.90;;;;;;5119107;27;20289;-75
2022/11/21 12:33:38;;;;;;;4.50;1.67;;;7.10;99.90;;;;;;5112213;27;20220;-78
2022/11/21 12:36:27;;;;;;;4.63;1.33;;;7.00;99.90;;;;;;5125688;27;20300;-75
2022/11/21 12:39:36;;;;;;;2.63;1.40;;;6.80;99.90;;;;;;5121958;27;20565;-78
2022/11/21 12:45:20;;;;;;;4.03;1.67;;;6.60;99.90;;;;;;5114808;27;20214;-78
2022/11/21 12:54:37;;;;;;;2.83;1.13;;;7.00;99.90;;;;;;5115506;27;20217;-76
2022/11/21 12:57:10;;;;;;;7.00;1.57;;;7.30;99.90;;;;;;5116399;27;20542;-76
2022/11/21 13:00:08;;;;;;;3.53;1.03;;;7.60;99.90;;;;;;5128805;27;20558;-74
2022/11/21 13:03:04;;;;;;;3.73;1.60;;;7.80;99.90;;;;;;5105417;28;20623;-77
2022/11/21 13:05:37;;;;;;;2.37;1.60;;;7.80;99.90;;;;;;5112665;27;20297;-76
2022/11/21 13:08:11;;;;;;;2.53;1.30;;;7.80;99.90;;;;;;5095203;28;20663;-78
2022/11/21 13:10:46;;;;;;;2.43;0.90;;;7.80;99.90;;;;;;5119398;27;20212;-76
2022/11/21 13:13:23;;;;;;;4.57;1.87;;;7.80;99.90;;;;;;5132048;27;20229;-79
2022/11/21 13:16:00;;;;;;;5.40;1.53;;;7.80;99.90;;;;;;5126292;27;20209;-77
2022/11/21 13:18:34;;;;;;;4.07;1.30;;;7.80;99.90;;;;;;5120327;27;20194;-77
2022/11/21 13:21:31;;;;;;;4.57;1.30;;;7.80;99.90;;;;;;5115668;27;20233;-77
2022/11/21 13:24:07;;;;;;;3.27;1.30;;;7.70;99.90;;;;;;5121711;27;20209;-76
2022/11/21 13:26:51;;;;;;;3.90;1.10;;;7.70;99.90;;;;;;5117461;27;20206;-75
2022/11/21 13:29:19;;;;;;;2.40;1.07;;;7.90;99.90;;;;;;5119156;27;20210;-74
2022/11/21 13:31:51;;;;;;;4.23;1.20;;;7.80;99.90;;;;;;5111950;27;20208;-77
2022/11/21 13:34:39;;;;;;;3.20;1.30;;;7.70;99.90;;;;;;5123620;27;20201;-78
2022/11/21 13:37:07;;;;;;;3.80;1.30;;;7.70;99.90;;;;;;5114913;27;20225;-76
2022/11/21 13:39:38;;;;;;;4.10;1.20;;;7.80;99.90;;;;;;5112928;27;20263;-78
2022/11/21 13:45:49;;;;;;;3.73;1.20;;;7.80;99.90;;;;;;5119919;27;20292;-78
2022/11/21 13:48:37;;;;;;;3.93;1.23;;;7.70;99.90;;;;;;5076079;28;20569;-77
2022/11/21 13:51:42;;;;;;;3.23;1.30;;;7.80;99.90;;;;;;5116662;27;20636;-74
2022/11/21 13:54:35;;;;;;;3.43;1.20;;;7.70;99.90;;;;;;5131059;27;20212;-78
2022/11/21 13:57:14;;;;;;;4.37;1.20;;;7.60;99.90;;;;;;5110670;28;20689;-74
2022/11/21 14:00:16;;;;;;;4.70;1.37;;;7.70;99.90;;;;;;5116453;27;20190;-75
2022/11/21 14:03:20;;;;;;;3.10;1.30;;;7.60;99.90;;;;;;5129973;27;20637;-74
2022/11/21 14:06:02;;;;;;;3.83;1.30;;;7.60;99.90;;;;;;5109531;28;20634;-73
2022/11/21 14:08:31;;;;;;;3.67;1.20;;;7.50;99.90;;;;;;5130097;28;20201;-75
2022/11/21 14:11:19;;;;;;;3.17;1.03;;;7.40;99.90;;;;;;5152589;27;20221;-76